createdAt,value
2018-11-29T00:00:46.213Z,3.31
2018-11-29T00:03:15.145Z,3.28
2018-11-29T00:05:43.960Z,3.26
2018-11-29T00:08:12.936Z,3.27
2018-11-29T00:10:41.685Z,3.38
2018-11-29T00:13:17.147Z,3.24
2018-11-29T00:15:47.932Z,3.30
2018-11-29T00:18:16.892Z,3.28
2018-11-29T00:20:45.716Z,3.30
2018-11-29T00:23:14.598Z,3.45
2018-11-29T00:25:43.318Z,3.51
2018-11-29T00:28:12.273Z,3.60
2018-11-29T00:30:40.972Z,3.59
2018-11-29T00:33:09.810Z,3.64
2018-11-29T00:35:38.715Z,3.46
2018-11-29T00:38:07.567Z,3.45
2018-11-29T00:40:36.376Z,3.45
2018-11-29T00:43:05.316Z,3.47
2018-11-29T00:45:34.104Z,3.39
2018-11-29T00:48:02.844Z,3.40
2018-11-29T00:50:31.833Z,3.38
2018-11-29T00:53:00.620Z,3.40
2018-11-29T00:55:29.412Z,3.26
2018-11-29T00:57:58.240Z,3.24
2018-11-29T01:00:26.985Z,3.22
2018-11-29T01:03:02.429Z,3.34
2018-11-29T01:05:31.185Z,3.28
2018-11-29T01:07:59.908Z,3.22
2018-11-29T01:10:28.767Z,3.22
2018-11-29T01:12:57.606Z,3.17
2018-11-29T01:15:26.382Z,3.09
2018-11-29T01:17:55.172Z,3.03
2018-11-29T01:20:24.168Z,2.99
2018-11-29T01:22:53.151Z,3.03
2018-11-29T01:25:22.996Z,3.11
2018-11-29T01:27:51.887Z,3.11
2018-11-29T01:30:21.928Z,3.11
2018-11-29T01:32:50.870Z,3.14
2018-11-29T01:35:20.360Z,3.22
2018-11-29T01:37:49.683Z,3.23
2018-11-29T01:40:23.942Z,3.33
2018-11-29T01:42:55.725Z,3.25
2018-11-29T01:45:24.699Z,3.23
2018-11-29T01:47:53.488Z,3.30
2018-11-29T01:50:22.313Z,3.18
2018-11-29T01:52:51.293Z,3.24
2018-11-29T01:55:20.081Z,3.34
2018-11-29T01:57:48.866Z,3.33
2018-11-29T02:00:18.380Z,3.27
2018-11-29T02:02:49.046Z,3.36
2018-11-29T02:05:17.760Z,3.48
2018-11-29T02:07:46.652Z,3.42
2018-11-29T02:10:21.483Z,3.34
2018-11-29T02:12:50.378Z,3.35
2018-11-29T02:15:19.144Z,3.34
2018-11-29T02:17:47.921Z,3.35
2018-11-29T02:20:17.763Z,3.43
2018-11-29T02:22:46.993Z,3.38
2018-11-29T02:25:15.734Z,3.32
2018-11-29T02:27:44.571Z,3.38
2018-11-29T02:30:18.809Z,3.32
2018-11-29T02:32:47.934Z,3.40
2018-11-29T02:35:16.698Z,3.44
2018-11-29T02:37:45.451Z,3.54
2018-11-29T02:40:15.372Z,3.48
2018-11-29T02:42:44.483Z,3.54
2018-11-29T02:45:14.577Z,3.64
2018-11-29T02:47:43.511Z,3.62
2018-11-29T02:50:12.617Z,3.64
2018-11-29T02:52:41.370Z,3.70
2018-11-29T02:55:11.214Z,3.60
2018-11-29T02:57:40.052Z,3.57
2018-11-29T03:00:12.677Z,3.59
2018-11-29T03:02:41.529Z,3.62
2018-11-29T03:05:10.415Z,3.54
2018-11-29T03:07:39.621Z,3.57
2018-11-29T03:10:10.586Z,3.65
2018-11-29T03:12:39.347Z,3.67
2018-11-29T03:15:11.650Z,3.60
2018-11-29T03:17:40.496Z,3.61
2018-11-29T03:20:10.664Z,3.63
2018-11-29T03:22:39.619Z,3.73
2018-11-29T03:25:10.807Z,3.71
2018-11-29T03:27:39.571Z,3.62
2018-11-29T03:30:16.453Z,3.59
2018-11-29T03:32:45.241Z,3.65
2018-11-29T03:35:14.743Z,3.62
2018-11-29T03:37:43.553Z,3.67
2018-11-29T03:40:13.445Z,3.53
2018-11-29T03:42:42.200Z,3.62
2018-11-29T03:45:13.815Z,3.67
2018-11-29T03:47:42.555Z,3.69
2018-11-29T03:50:12.635Z,3.54
2018-11-29T03:52:41.379Z,3.55
2018-11-29T03:55:11.121Z,3.52
2018-11-29T03:57:40.368Z,3.65
2018-11-29T04:00:17.006Z,3.70
2018-11-29T04:02:47.513Z,3.66
2018-11-29T04:05:16.410Z,3.67
2018-11-29T04:07:45.247Z,3.76
2018-11-29T04:10:15.934Z,3.74
2018-11-29T04:12:44.803Z,3.77
2018-11-29T04:15:15.132Z,3.78
2018-11-29T04:17:44.269Z,3.81
2018-11-29T04:20:14.062Z,3.69
2018-11-29T04:22:43.896Z,3.62
2018-11-29T04:25:13.810Z,3.63
2018-11-29T04:27:42.602Z,3.62
2018-11-29T04:30:16.298Z,3.54
2018-11-29T04:32:45.400Z,3.42
2018-11-29T04:35:14.594Z,3.45
2018-11-29T04:37:43.528Z,3.36
2018-11-29T04:40:14.458Z,3.33
2018-11-29T04:42:43.365Z,3.35
2018-11-29T04:45:14.308Z,3.44
2018-11-29T04:47:43.138Z,3.44
2018-11-29T04:50:11.906Z,3.44
2018-11-29T04:52:40.711Z,3.37
2018-11-29T04:55:10.853Z,3.30
2018-11-29T04:57:39.706Z,3.31
2018-11-29T05:00:14.480Z,3.26
2018-11-29T05:02:43.439Z,3.25
2018-11-29T05:05:12.866Z,3.27
2018-11-29T05:07:41.759Z,3.31
2018-11-29T05:10:12.060Z,3.22
2018-11-29T05:12:40.880Z,3.27
2018-11-29T05:15:11.722Z,3.41
2018-11-29T05:17:40.538Z,3.42
2018-11-29T05:20:09.761Z,3.48
2018-11-29T05:22:38.660Z,3.48
2018-11-29T05:25:08.902Z,3.56
2018-11-29T05:27:38.180Z,3.43
2018-11-29T05:30:13.621Z,3.45
2018-11-29T05:32:42.379Z,3.50
2018-11-29T05:35:12.100Z,3.45
2018-11-29T05:37:41.294Z,3.44
2018-11-29T05:40:11.663Z,3.33
2018-11-29T05:42:40.545Z,3.34
2018-11-29T05:45:10.911Z,3.40
2018-11-29T05:47:39.721Z,3.49
2018-11-29T05:50:10.702Z,3.36
2018-11-29T05:52:39.922Z,3.34
2018-11-29T05:55:10.565Z,3.40
2018-11-29T05:57:39.376Z,3.42
2018-11-29T06:00:17.031Z,3.51
2018-11-29T06:02:45.932Z,3.52
2018-11-29T06:05:16.252Z,3.52
2018-11-29T06:07:45.412Z,3.46
2018-11-29T06:10:18.067Z,3.42
2018-11-29T06:12:47.202Z,3.33
2018-11-29T06:15:15.984Z,3.39
2018-11-29T06:17:44.739Z,3.31
2018-11-29T06:20:16.840Z,3.32
2018-11-29T06:22:45.582Z,3.40
2018-11-29T06:25:14.512Z,3.41
2018-11-29T06:27:43.444Z,3.48
2018-11-29T06:30:17.507Z,3.16
2018-11-29T06:32:46.717Z,3.42
2018-11-29T06:35:15.476Z,3.51
2018-11-29T06:37:44.225Z,3.51
2018-11-29T06:40:14.029Z,3.46
2018-11-29T06:42:42.752Z,3.36
2018-11-29T06:45:26.450Z,3.38
2018-11-29T06:47:55.252Z,3.37
2018-11-29T06:50:23.957Z,3.52
2018-11-29T06:52:53.067Z,3.51
2018-11-29T06:55:22.812Z,3.53
2018-11-29T06:57:52.006Z,3.63
2018-11-29T07:00:31.783Z,3.60
2018-11-29T07:03:00.522Z,3.62
2018-11-29T07:05:29.309Z,3.66
2018-11-29T07:07:58.096Z,3.67
2018-11-29T07:10:34.403Z,3.66
2018-11-29T07:13:04.185Z,3.59
2018-11-29T07:15:32.891Z,3.63
2018-11-29T07:18:01.644Z,3.68
2018-11-29T07:20:30.485Z,3.70
2018-11-29T07:22:59.269Z,3.90
2018-11-29T07:25:28.089Z,3.91
2018-11-29T07:27:57.023Z,3.77
2018-11-29T07:30:25.813Z,3.82
2018-11-29T07:32:54.591Z,3.88
2018-11-29T07:35:23.813Z,3.86
2018-11-29T07:37:52.537Z,3.88
2018-11-29T07:40:21.369Z,3.84
2018-11-29T07:42:53.601Z,3.83
2018-11-29T07:45:22.488Z,3.85
2018-11-29T07:47:51.193Z,3.91
2018-11-29T07:50:22.930Z,3.96
2018-11-29T07:52:51.649Z,4.02
2018-11-29T07:55:21.494Z,4.07
2018-11-29T07:57:51.579Z,3.98
2018-11-29T08:00:20.358Z,3.92
2018-11-29T08:02:49.079Z,3.99
2018-11-29T08:05:18.219Z,4.01
2018-11-29T08:07:47.992Z,4.07
2018-11-29T08:10:18.705Z,4.04
2018-11-29T08:12:47.616Z,4.07
2018-11-29T08:15:18.793Z,4.01
2018-11-29T08:17:47.945Z,4.08
2018-11-29T08:20:17.961Z,4.04
2018-11-29T08:22:46.830Z,4.13
2018-11-29T08:25:15.749Z,4.01
2018-11-29T08:27:44.609Z,4.06
2018-11-29T08:30:14.880Z,4.08
2018-11-29T08:32:44.160Z,4.15
2018-11-29T08:35:14.008Z,4.21
2018-11-29T08:37:43.829Z,4.10
2018-11-29T08:40:14.339Z,4.08
2018-11-29T08:42:43.716Z,4.23
2018-11-29T08:45:12.709Z,4.34
2018-11-29T08:47:41.833Z,4.37
2018-11-29T08:50:11.821Z,4.33
2018-11-29T08:52:41.122Z,4.32
2018-11-29T08:55:13.970Z,4.30
2018-11-29T08:57:42.971Z,4.34
2018-11-29T09:00:16.557Z,4.43
2018-11-29T09:02:45.284Z,4.31
2018-11-29T09:05:14.327Z,4.35
2018-11-29T09:07:44.048Z,4.45
2018-11-29T09:10:14.233Z,4.45
2018-11-29T09:12:43.159Z,4.58
2018-11-29T09:15:14.490Z,4.58
2018-11-29T09:17:43.530Z,4.53
2018-11-29T09:20:20.891Z,4.68
2018-11-29T09:22:49.627Z,4.63
2018-11-29T09:25:19.589Z,4.57
2018-11-29T09:27:48.496Z,4.55
2018-11-29T09:30:20.225Z,4.57
2018-11-29T09:32:50.101Z,4.68
2018-11-29T09:35:18.896Z,4.79
2018-11-29T09:37:47.590Z,4.80
2018-11-29T09:40:17.381Z,4.75
2018-11-29T09:42:46.209Z,4.77
2018-11-29T09:45:15.969Z,4.81
2018-11-29T09:47:45.683Z,4.75
2018-11-29T09:50:15.262Z,4.76
2018-11-29T09:52:43.986Z,4.87
2018-11-29T09:55:13.841Z,4.83
2018-11-29T09:57:42.990Z,4.85
2018-11-29T10:00:27.567Z,4.94
2018-11-29T10:03:00.494Z,4.95
2018-11-29T10:05:29.612Z,5.09
2018-11-29T10:07:58.332Z,5.12
2018-11-29T10:10:27.040Z,5.15
2018-11-29T10:12:55.797Z,5.15
2018-11-29T10:15:30.784Z,5.10
2018-11-29T10:17:59.621Z,5.18
2018-11-29T10:20:28.366Z,5.17
2018-11-29T10:22:57.219Z,5.21
2018-11-29T10:25:26.048Z,5.29
2018-11-29T10:27:58.235Z,5.20
2018-11-29T10:30:28.779Z,5.16
2018-11-29T10:32:57.589Z,5.25
2018-11-29T10:35:26.351Z,5.22
2018-11-29T10:37:56.089Z,5.18
2018-11-29T10:40:24.801Z,5.20
2018-11-29T10:42:53.595Z,5.16
2018-11-29T10:45:22.770Z,5.26
2018-11-29T10:47:52.985Z,5.29
2018-11-29T10:50:21.702Z,5.25
2018-11-29T10:52:50.488Z,5.25
2018-11-29T10:55:20.088Z,5.26
2018-11-29T10:57:48.885Z,5.23
2018-11-29T11:00:24.915Z,5.21
2018-11-29T11:02:59.807Z,5.11
2018-11-29T11:05:28.822Z,5.12
2018-11-29T11:07:59.779Z,5.21
2018-11-29T11:10:28.549Z,5.29
2018-11-29T11:12:57.524Z,5.29
2018-11-29T11:15:26.403Z,5.30
2018-11-29T11:17:55.230Z,5.39
2018-11-29T11:20:24.329Z,5.44
2018-11-29T11:22:53.424Z,5.36
2018-11-29T11:25:22.169Z,5.40
2018-11-29T11:27:51.204Z,5.49
2018-11-29T11:30:21.112Z,5.66
2018-11-29T11:32:51.050Z,5.68
2018-11-29T11:35:20.135Z,5.66
2018-11-29T11:37:48.911Z,5.82
2018-11-29T11:40:18.035Z,5.74
2018-11-29T11:42:47.510Z,5.87
2018-11-29T11:45:18.380Z,5.94
2018-11-29T11:47:47.221Z,5.86
2018-11-29T11:50:18.710Z,5.87
2018-11-29T11:52:47.476Z,5.70
2018-11-29T11:55:18.867Z,5.60
2018-11-29T11:57:45.974Z,5.58
2018-11-29T12:00:23.604Z,5.67
2018-11-29T12:03:06.203Z,5.72
2018-11-29T12:05:35.278Z,5.71
2018-11-29T12:08:04.144Z,5.71
2018-11-29T12:10:33.108Z,5.65
2018-11-29T12:13:01.838Z,5.60
2018-11-29T12:15:30.748Z,5.52
2018-11-29T12:17:59.750Z,5.63
2018-11-29T12:20:28.501Z,5.62
2018-11-29T12:22:57.676Z,5.69
2018-11-29T12:25:26.768Z,5.74
2018-11-29T12:27:55.558Z,5.81
2018-11-29T12:30:26.437Z,5.76
2018-11-29T12:33:00.408Z,5.76
2018-11-29T12:35:29.344Z,5.76
2018-11-29T12:37:58.152Z,5.71
2018-11-29T12:40:27.280Z,5.77
2018-11-29T12:42:56.134Z,5.79
2018-11-29T12:45:24.985Z,5.71
2018-11-29T12:47:53.913Z,5.72
2018-11-29T12:50:24.001Z,5.72
2018-11-29T12:52:52.921Z,5.68
2018-11-29T12:55:22.953Z,5.74
2018-11-29T12:58:04.428Z,5.70
2018-11-29T13:00:21.430Z,5.70
2018-11-29T13:02:52.693Z,5.76
2018-11-29T13:05:21.613Z,5.84
2018-11-29T13:07:50.466Z,5.90
2018-11-29T13:10:20.369Z,5.89
2018-11-29T13:12:49.397Z,5.87
2018-11-29T13:15:24.618Z,5.84
2018-11-29T13:17:54.038Z,5.79
2018-11-29T13:20:22.830Z,5.83
2018-11-29T13:22:51.892Z,5.75
2018-11-29T13:25:21.545Z,5.75
2018-11-29T13:27:50.398Z,5.70
2018-11-29T13:30:20.611Z,5.75
2018-11-29T13:32:50.644Z,5.71
2018-11-29T13:35:22.140Z,5.71
2018-11-29T13:37:56.106Z,5.77
2018-11-29T13:40:25.184Z,5.81
2018-11-29T13:42:54.021Z,5.83
2018-11-29T13:45:22.798Z,5.79
2018-11-29T13:47:51.837Z,5.79
2018-11-29T13:50:20.803Z,5.74
2018-11-29T13:52:49.665Z,5.73
2018-11-29T13:55:19.381Z,5.64
2018-11-29T13:57:50.380Z,5.70
2018-11-29T14:00:20.173Z,5.75
2018-11-29T14:02:51.061Z,5.82
2018-11-29T14:05:19.961Z,5.80
2018-11-29T14:07:48.891Z,5.84
2018-11-29T14:10:19.511Z,5.76
2018-11-29T14:12:49.796Z,5.75
2018-11-29T14:15:19.748Z,5.74
2018-11-29T14:17:48.523Z,5.67
2018-11-29T14:20:17.456Z,5.72
2018-11-29T14:22:46.222Z,5.64
2018-11-29T14:25:15.850Z,5.66
2018-11-29T14:27:49.042Z,5.63
2018-11-29T14:30:25.551Z,5.57
2018-11-29T14:32:55.303Z,5.57
2018-11-29T14:35:24.842Z,5.54
2018-11-29T14:37:53.716Z,5.63
2018-11-29T14:40:23.667Z,5.71
2018-11-29T14:42:52.491Z,5.65
2018-11-29T14:45:22.452Z,5.66
2018-11-29T14:47:51.345Z,5.71
2018-11-29T14:50:25.576Z,5.63
2018-11-29T14:52:54.490Z,5.70
2018-11-29T14:55:23.283Z,5.71
2018-11-29T14:57:52.129Z,5.69
2018-11-29T15:00:21.034Z,5.64
2018-11-29T15:02:49.924Z,5.59
2018-11-29T15:05:25.259Z,5.58
2018-11-29T15:07:54.128Z,5.58
2018-11-29T15:10:22.873Z,5.54
2018-11-29T15:12:51.704Z,5.58
2018-11-29T15:15:20.492Z,5.69
2018-11-29T15:17:50.231Z,5.86
2018-11-29T15:20:25.084Z,5.73
2018-11-29T15:22:53.870Z,5.72
2018-11-29T15:25:22.673Z,5.83
2018-11-29T15:27:51.507Z,5.80
2018-11-29T15:30:21.543Z,5.83
2018-11-29T15:32:50.300Z,5.82
2018-11-29T15:35:19.094Z,5.71
2018-11-29T15:37:48.045Z,5.77
2018-11-29T15:40:17.688Z,5.80
2018-11-29T15:42:46.723Z,5.83
2018-11-29T15:45:30.321Z,5.90
2018-11-29T15:47:59.079Z,5.90
2018-11-29T15:50:28.201Z,5.95
2018-11-29T15:52:57.246Z,5.87
2018-11-29T15:55:26.039Z,5.92
2018-11-29T15:57:55.189Z,5.89
2018-11-29T16:00:25.919Z,5.93
2018-11-29T16:02:55.679Z,5.93
2018-11-29T16:05:24.460Z,5.99
2018-11-29T16:07:53.292Z,5.92
2018-11-29T16:10:24.016Z,5.95
2018-11-29T16:12:52.790Z,5.92
2018-11-29T16:15:22.049Z,5.82
2018-11-29T16:17:51.850Z,5.85
2018-11-29T16:20:22.803Z,5.89
2018-11-29T16:22:51.565Z,5.94
2018-11-29T16:25:20.445Z,5.93
2018-11-29T16:27:49.235Z,5.92
2018-11-29T16:33:09.817Z,5.93
2018-11-29T16:35:39.427Z,5.87
2018-11-29T16:38:08.490Z,5.94
2018-11-29T16:40:37.825Z,5.93
2018-11-29T16:43:07.497Z,5.99
2018-11-29T16:45:36.830Z,6.08
2018-11-29T16:48:05.828Z,6.12
2018-11-29T16:50:34.783Z,6.05
2018-11-29T16:53:03.484Z,6.13
2018-11-29T16:55:32.245Z,6.11
2018-11-29T16:58:10.736Z,6.22
2018-11-29T17:00:39.552Z,6.23
2018-11-29T17:03:08.308Z,6.18
2018-11-29T17:05:37.096Z,6.19
2018-11-29T17:08:06.354Z,6.28
2018-11-29T17:10:35.259Z,6.24
2018-11-29T17:13:08.244Z,6.20
2018-11-29T17:15:37.120Z,6.26
2018-11-29T17:18:05.961Z,6.28
2018-11-29T17:20:35.164Z,6.28
2018-11-29T17:23:03.887Z,6.30
2018-11-29T17:25:33.361Z,6.29
2018-11-29T17:28:02.323Z,6.22
2018-11-29T17:30:31.222Z,6.17
2018-11-29T17:33:00.316Z,6.18
2018-11-29T17:35:29.268Z,6.17
2018-11-29T17:37:59.352Z,6.18
2018-11-29T17:40:28.432Z,6.16
2018-11-29T17:42:57.879Z,6.15
2018-11-29T17:45:29.228Z,6.21
2018-11-29T17:47:59.428Z,6.21
2018-11-29T17:50:34.459Z,6.19
2018-11-29T17:53:03.554Z,6.14
2018-11-29T17:55:32.777Z,6.21
2018-11-29T17:58:01.718Z,6.24
2018-11-29T18:00:32.420Z,6.22
2018-11-29T18:03:01.162Z,6.25
2018-11-29T18:05:29.914Z,6.28
2018-11-29T18:07:58.912Z,6.08
2018-11-29T18:10:29.769Z,6.18
2018-11-29T18:13:01.192Z,6.23
2018-11-29T18:15:31.649Z,6.17
2018-11-29T18:18:00.380Z,6.24
2018-11-29T18:20:29.504Z,6.26
2018-11-29T18:22:59.081Z,6.18
2018-11-29T18:25:27.895Z,6.19
2018-11-29T18:27:57.435Z,6.20
2018-11-29T18:30:26.170Z,6.20
2018-11-29T18:32:54.897Z,6.25
2018-11-29T18:35:23.810Z,6.28
2018-11-29T18:37:52.555Z,6.32
2018-11-29T18:40:22.364Z,6.39
2018-11-29T18:42:52.712Z,6.54
2018-11-29T18:45:21.605Z,6.48
2018-11-29T18:47:52.208Z,6.44
2018-11-29T18:50:22.351Z,6.43
2018-11-29T18:52:51.445Z,6.50
2018-11-29T18:55:21.073Z,6.56
2018-11-29T18:57:50.461Z,6.66
2018-11-29T19:00:26.520Z,6.73
2018-11-29T19:02:57.065Z,6.65
2018-11-29T19:05:24.535Z,6.64
2018-11-29T19:07:53.666Z,6.67
2018-11-29T19:10:22.778Z,6.66
2018-11-29T19:12:56.018Z,6.70
2018-11-29T19:15:25.081Z,6.64
2018-11-29T19:17:54.105Z,6.53
2018-11-29T19:20:22.881Z,6.51
2018-11-29T19:22:51.631Z,6.46
2018-11-29T19:25:20.851Z,6.43
2018-11-29T19:27:49.746Z,6.44
2018-11-29T19:30:24.233Z,6.44
2018-11-29T19:32:59.989Z,6.45
2018-11-29T19:35:29.165Z,6.46
2018-11-29T19:37:57.966Z,6.41
2018-11-29T19:40:26.793Z,6.38
2018-11-29T19:42:56.082Z,6.45
2018-11-29T19:45:24.984Z,6.47
2018-11-29T19:47:53.705Z,6.43
2018-11-29T19:50:22.679Z,6.49
2018-11-29T19:52:52.959Z,6.50
2018-11-29T19:55:24.150Z,6.44
2018-11-29T19:57:53.093Z,6.59
2018-11-29T20:00:23.890Z,6.53
2018-11-29T20:02:54.186Z,6.53
2018-11-29T20:05:23.030Z,6.63
2018-11-29T20:07:52.024Z,6.65
2018-11-29T20:10:20.857Z,6.64
2018-11-29T20:12:55.881Z,6.67
2018-11-29T20:15:24.784Z,6.78
2018-11-29T20:17:53.704Z,6.87
2018-11-29T20:20:22.590Z,6.91
2018-11-29T20:22:51.478Z,6.92
2018-11-29T20:25:21.562Z,6.98
2018-11-29T20:27:50.289Z,6.99
2018-11-29T20:30:20.296Z,7.02
2018-11-29T20:32:50.345Z,7.01
2018-11-29T20:35:19.796Z,6.96
2018-11-29T20:37:49.638Z,6.91
2018-11-29T20:40:20.037Z,6.82
2018-11-29T20:42:49.824Z,6.93
2018-11-29T20:45:35.272Z,6.90
2018-11-29T20:48:21.378Z,6.93
2018-11-29T20:50:50.802Z,6.94
2018-11-29T20:53:21.659Z,6.83
2018-11-29T20:55:50.398Z,6.90
2018-11-29T20:58:19.189Z,6.93
2018-11-29T21:00:48.003Z,6.96
2018-11-29T21:03:16.788Z,6.90
2018-11-29T21:05:45.861Z,6.86
2018-11-29T21:08:14.628Z,6.71
2018-11-29T21:10:43.458Z,6.86
2018-11-29T21:13:12.773Z,6.92
2018-11-29T21:15:42.688Z,6.85
2018-11-29T21:18:14.049Z,6.87
2018-11-29T21:20:43.680Z,6.85
2018-11-29T21:23:15.711Z,6.87
2018-11-29T21:25:45.112Z,6.87
2018-11-29T21:28:13.857Z,6.88
2018-11-29T21:30:42.778Z,6.84
2018-11-29T21:33:11.913Z,6.94
2018-11-29T21:35:40.656Z,6.94
2018-11-29T21:38:13.210Z,6.95
2018-11-29T21:40:43.734Z,6.93
2018-11-29T21:43:12.523Z,6.96
2018-11-29T21:45:41.488Z,6.98
2018-11-29T21:48:10.305Z,6.94
2018-11-29T21:50:39.993Z,6.92
2018-11-29T21:53:08.904Z,6.93
2018-11-29T21:55:37.688Z,6.97
2018-11-29T21:58:06.608Z,7.03
2018-11-29T22:00:35.707Z,7.05
2018-11-29T22:03:04.804Z,7.00
2018-11-29T22:05:33.930Z,7.05
2018-11-29T22:08:02.934Z,7.07
2018-11-29T22:10:31.648Z,7.06
2018-11-29T22:13:00.831Z,7.10
2018-11-29T22:15:29.501Z,7.16
2018-11-29T22:18:31.955Z,7.12
2018-11-29T22:21:02.946Z,7.14
2018-11-29T22:23:32.996Z,7.09
2018-11-29T22:26:03.115Z,7.03
2018-11-29T22:28:32.106Z,7.07
2018-11-29T22:31:00.864Z,7.09
2018-11-29T22:33:29.622Z,7.05
2018-11-29T22:35:58.365Z,7.09
2018-11-29T22:38:27.131Z,6.95
2018-11-29T22:40:56.115Z,7.00
2018-11-29T22:43:25.142Z,7.00
2018-11-29T22:45:54.131Z,6.98
2018-11-29T22:48:23.125Z,6.93
2018-11-29T22:50:52.144Z,6.98
2018-11-29T22:53:21.115Z,7.00
2018-11-29T22:55:50.132Z,6.98
2018-11-29T22:58:18.997Z,7.07
2018-11-29T23:00:52.575Z,7.15
2018-11-29T23:03:21.587Z,7.24
2018-11-29T23:05:50.380Z,7.22
2018-11-29T23:08:19.492Z,7.39
2018-11-29T23:10:49.004Z,7.40
2018-11-29T23:13:18.800Z,7.41
2018-11-29T23:15:47.685Z,7.52
2018-11-29T23:18:16.586Z,7.47
2018-11-29T23:20:45.276Z,7.35
2018-11-29T23:23:14.341Z,7.47
2018-11-29T23:25:43.143Z,7.51
2018-11-29T23:28:12.027Z,7.48
2018-11-29T23:30:40.848Z,7.47
2018-11-29T23:33:10.331Z,7.44
2018-11-29T23:35:40.243Z,7.46
2018-11-29T23:43:07.565Z,7.43
2018-11-29T23:45:36.521Z,7.43
2018-11-29T23:48:05.349Z,7.42
2018-11-29T23:50:34.208Z,7.36
2018-11-29T23:53:03.146Z,7.41
2018-11-29T23:55:32.242Z,7.44
2018-11-29T23:58:01.237Z,7.43
